Time;durP1;ratioP1;P1;durP2;ratioP2;P2;SDS_P1;SDS_P2;PMS_P1;PMS_P2;Temp;Humidity;BMP_temperature;BMP_pressure;BME280_temperature;BME280_humidity;BME280_pressure;Samples;Min_cycle;Max_cycle;Signal;HPM_P1;HPM_P2
2022/03/07 00:01:32;;;;;;;7.40;3.97;;;1.60;99.90;;;;;;4917658;29;20205;-74
2022/03/07 00:03:59;;;;;;;8.53;3.83;;;1.60;99.90;;;;;;4917609;29;20589;-73
2022/03/07 00:06:26;;;;;;;8.37;4.13;;;1.70;99.90;;;;;;4929050;29;20260;-74
2022/03/07 00:08:53;;;;;;;8.40;4.23;;;1.60;99.90;;;;;;4935825;29;20208;-72
2022/03/07 00:11:21;;;;;;;8.07;4.30;;;1.50;99.90;;;;;;4936100;29;20216;-74
2022/03/07 00:13:48;;;;;;;8.97;4.33;;;1.40;99.90;;;;;;4936058;29;20225;-73
2022/03/07 00:16:15;;;;;;;7.40;4.07;;;1.40;99.90;;;;;;4936304;29;20207;-74
2022/03/07 00:18:42;;;;;;;8.70;4.07;;;1.40;99.90;;;;;;4936019;29;20200;-75
2022/03/07 00:21:09;;;;;;;8.37;4.23;;;1.30;99.90;;;;;;4934627;29;20201;-72
2022/03/07 00:23:36;;;;;;;8.57;3.73;;;1.40;99.90;;;;;;4936203;29;20197;-74
2022/03/07 00:26:03;;;;;;;6.27;3.73;;;1.40;99.90;;;;;;4936439;29;20603;-75
2022/03/07 00:28:31;;;;;;;7.93;4.33;;;1.40;99.90;;;;;;4935971;29;20201;-72
2022/03/07 00:30:58;;;;;;;7.73;3.87;;;1.50;99.90;;;;;;4936332;29;20220;-74
2022/03/07 00:33:25;;;;;;;8.20;3.73;;;1.50;99.90;;;;;;4936266;29;20201;-75
2022/03/07 00:35:52;;;;;;;8.67;4.40;;;1.50;99.90;;;;;;4931311;29;20217;-73
2022/03/07 00:38:19;;;;;;;6.03;3.90;;;1.70;99.90;;;;;;4931214;29;20655;-74
2022/03/07 00:40:45;;;;;;;8.77;3.60;;;1.60;99.90;;;;;;4936877;29;20219;-74
2022/03/07 00:43:12;;;;;;;5.07;3.23;;;1.40;99.90;;;;;;4937180;29;20213;-75
2022/03/07 00:45:40;;;;;;;9.17;3.70;;;1.40;99.90;;;;;;4936970;29;20244;-75
2022/03/07 00:48:07;;;;;;;5.40;3.63;;;1.50;99.90;;;;;;4937186;29;20216;-75
2022/03/07 00:50:34;;;;;;;5.77;3.40;;;1.60;99.90;;;;;;4937549;29;20217;-75
2022/03/07 00:53:01;;;;;;;5.30;3.23;;;1.60;99.90;;;;;;4937354;29;20239;-75
2022/03/07 00:55:28;;;;;;;5.43;3.20;;;1.50;99.90;;;;;;4921844;29;20629;-75
2022/03/07 00:57:55;;;;;;;8.13;3.60;;;1.40;99.90;;;;;;4918163;29;20216;-75
2022/03/07 01:00:22;;;;;;;4.43;2.90;;;1.30;99.90;;;;;;4921578;29;20205;-73
2022/03/07 01:02:50;;;;;;;5.53;2.83;;;1.10;99.90;;;;;;4936390;29;20213;-74
2022/03/07 01:05:18;;;;;;;6.70;3.73;;;1.00;99.90;;;;;;4936475;29;20236;-74
2022/03/07 01:07:44;;;;;;;5.33;2.90;;;0.90;99.90;;;;;;4937367;29;20221;-74
2022/03/07 01:10:11;;;;;;;5.20;3.30;;;1.00;99.90;;;;;;4924816;29;20669;-74
2022/03/07 01:12:38;;;;;;;4.87;2.80;;;1.00;99.90;;;;;;4917758;29;20214;-75
2022/03/07 01:15:07;;;;;;;4.27;3.03;;;1.00;99.90;;;;;;4917644;29;20222;-75
2022/03/07 01:17:34;;;;;;;5.73;3.17;;;1.00;99.90;;;;;;4917142;29;20811;-74
2022/03/07 01:20:03;;;;;;;4.83;2.53;;;0.90;99.90;;;;;;4917209;29;20216;-74
2022/03/07 01:22:30;;;;;;;5.80;3.10;;;0.90;99.90;;;;;;4917283;29;20674;-75
2022/03/07 01:24:57;;;;;;;6.83;3.40;;;1.10;99.90;;;;;;4917175;29;20239;-74
2022/03/07 01:27:24;;;;;;;7.37;3.50;;;1.10;99.90;;;;;;4917043;29;20205;-74
2022/03/07 01:29:50;;;;;;;5.93;2.80;;;1.10;99.90;;;;;;4917207;29;20688;-75
2022/03/07 01:32:17;;;;;;;4.70;2.93;;;1.00;99.90;;;;;;4917400;29;20252;-74
2022/03/07 01:34:44;;;;;;;6.70;3.20;;;1.00;99.90;;;;;;4917059;29;20594;-74
2022/03/07 01:37:12;;;;;;;5.27;3.20;;;1.00;99.90;;;;;;4926625;29;20223;-74
2022/03/07 01:39:39;;;;;;;5.27;3.20;;;0.90;99.90;;;;;;4917702;29;20205;-74
2022/03/07 01:42:06;;;;;;;5.23;3.30;;;0.90;99.90;;;;;;4916927;29;20777;-71
2022/03/07 01:44:34;;;;;;;8.80;2.83;;;0.70;99.90;;;;;;4916753;29;20245;-75
2022/03/07 01:47:01;;;;;;;6.07;3.00;;;0.70;99.90;;;;;;4917242;29;20240;-75
2022/03/07 01:49:28;;;;;;;6.37;3.30;;;0.80;99.90;;;;;;4916954;29;20573;-71
2022/03/07 01:51:56;;;;;;;4.93;3.27;;;0.80;99.90;;;;;;4930267;29;20205;-74
2022/03/07 01:54:25;;;;;;;8.83;3.77;;;0.80;99.90;;;;;;4936036;29;20233;-74
2022/03/07 01:56:54;;;;;;;5.33;3.03;;;0.80;99.90;;;;;;4934934;29;20559;-75
2022/03/07 01:59:23;;;;;;;5.30;3.10;;;0.70;99.90;;;;;;4935936;29;20208;-73
2022/03/07 02:01:51;;;;;;;8.13;3.00;;;0.60;99.90;;;;;;4935268;29;20215;-73
2022/03/07 02:04:18;;;;;;;8.10;3.10;;;0.70;99.90;;;;;;4933518;29;20224;-75
2022/03/07 02:06:47;;;;;;;6.27;3.03;;;0.70;99.90;;;;;;4935682;29;20600;-75
2022/03/07 02:09:14;;;;;;;5.33;3.20;;;0.70;99.90;;;;;;4935756;29;20213;-74
2022/03/07 02:11:42;;;;;;;5.50;3.00;;;0.90;99.90;;;;;;4935740;29;20227;-74
2022/03/07 02:14:14;;;;;;;9.50;3.67;;;1.00;99.90;;;;;;4918356;29;20230;-74
2022/03/07 02:16:41;;;;;;;10.80;3.50;;;1.00;99.90;;;;;;4916524;29;20221;-73
2022/03/07 02:19:08;;;;;;;5.43;3.30;;;1.10;99.90;;;;;;4916632;29;20254;-74
2022/03/07 02:21:35;;;;;;;5.23;3.37;;;0.90;99.90;;;;;;4916284;29;20206;-75
2022/03/07 02:24:04;;;;;;;6.13;2.87;;;0.70;99.90;;;;;;4916805;29;20233;-74
2022/03/07 02:26:31;;;;;;;11.30;3.60;;;0.60;99.90;;;;;;4916538;29;20237;-73
2022/03/07 02:28:58;;;;;;;9.47;3.97;;;0.60;99.90;;;;;;4916450;29;20256;-74
2022/03/07 02:31:25;;;;;;;8.23;3.23;;;0.70;99.90;;;;;;4916173;29;20576;-74
2022/03/07 02:33:52;;;;;;;6.30;3.43;;;0.70;99.90;;;;;;4915959;29;20708;-75
2022/03/07 02:36:19;;;;;;;7.17;3.47;;;0.30;99.90;;;;;;4915695;29;20217;-74
2022/03/07 02:38:46;;;;;;;5.17;2.90;;;0.20;99.90;;;;;;4915519;29;20217;-75
2022/03/07 02:41:14;;;;;;;8.17;3.27;;;0.10;99.90;;;;;;4915988;29;20213;-74
2022/03/07 02:43:41;;;;;;;5.67;2.83;;;0.10;99.90;;;;;;4916036;29;20213;-74
2022/03/07 02:46:08;;;;;;;7.13;3.57;;;0.40;99.90;;;;;;4916006;29;20238;-74
2022/03/07 02:48:35;;;;;;;7.47;3.57;;;0.60;99.90;;;;;;4916290;29;20209;-74
2022/03/07 02:51:02;;;;;;;6.93;3.23;;;0.50;99.90;;;;;;4916393;29;20220;-74
2022/03/07 02:53:29;;;;;;;6.60;2.90;;;0.60;99.90;;;;;;4916590;29;20278;-74
2022/03/07 02:55:56;;;;;;;5.27;3.13;;;0.60;99.90;;;;;;4916742;29;20209;-74
2022/03/07 02:58:24;;;;;;;5.67;2.97;;;0.80;99.90;;;;;;4916426;29;20573;-75
2022/03/07 03:00:51;;;;;;;7.10;3.63;;;0.90;99.90;;;;;;4916600;29;20216;-75
2022/03/07 03:03:18;;;;;;;11.57;3.40;;;0.80;99.90;;;;;;4917450;29;20221;-74
2022/03/07 03:05:45;;;;;;;11.97;3.37;;;0.70;99.90;;;;;;4919877;29;20229;-74
2022/03/07 03:08:12;;;;;;;7.67;3.33;;;0.60;99.90;;;;;;4920059;29;20210;-75
2022/03/07 03:10:39;;;;;;;5.73;3.07;;;0.40;99.90;;;;;;4920072;29;20216;-73
2022/03/07 03:13:05;;;;;;;3.87;2.83;;;0.40;99.90;;;;;;4919931;29;20214;-75
2022/03/07 03:15:37;;;;;;;7.10;3.50;;;0.50;99.90;;;;;;4920036;29;20589;-76
2022/03/07 03:18:04;;;;;;;7.40;3.80;;;0.30;99.90;;;;;;4920078;29;20217;-73
2022/03/07 03:20:31;;;;;;;6.23;3.53;;;0.30;99.90;;;;;;4919779;29;20593;-74
2022/03/07 03:22:57;;;;;;;7.80;3.17;;;0.20;99.90;;;;;;4919654;29;20216;-75
2022/03/07 03:25:24;;;;;;;5.77;3.30;;;0.20;99.90;;;;;;4919796;29;20237;-75
2022/03/07 03:27:51;;;;;;;6.93;3.97;;;0.40;99.90;;;;;;4919887;29;20241;-75
2022/03/07 03:30:18;;;;;;;4.63;3.27;;;0.50;99.90;;;;;;4919759;29;20561;-75
2022/03/07 03:32:46;;;;;;;7.20;3.67;;;0.30;99.90;;;;;;4919369;29;20679;-76
2022/03/07 03:35:13;;;;;;;5.27;2.90;;;0.20;99.90;;;;;;4919275;29;20229;-75
2022/03/07 03:37:40;;;;;;;4.37;2.73;;;0.20;99.90;;;;;;4919333;29;20209;-75
2022/03/07 03:40:10;;;;;;;4.77;3.27;;;0.20;99.90;;;;;;4918935;29;20220;-75
2022/03/07 03:42:37;;;;;;;6.73;3.00;;;0.10;99.90;;;;;;4919409;29;20213;-71
2022/03/07 03:45:08;;;;;;;6.37;3.87;;;0.00;99.90;;;;;;4919324;29;20566;-74
2022/03/07 03:47:35;;;;;;;5.87;3.17;;;-0.20;99.90;;;;;;4919331;29;20289;-73
2022/03/07 03:50:05;;;;;;;4.67;3.20;;;-0.30;99.90;;;;;;4919478;29;20213;-73
2022/03/07 03:52:32;;;;;;;7.83;3.10;;;-0.30;99.90;;;;;;4919311;29;20581;-75
2022/03/07 03:54:58;;;;;;;5.60;3.53;;;-0.30;99.90;;;;;;4918891;29;20229;-74
2022/03/07 03:57:25;;;;;;;5.53;2.80;;;-0.30;99.90;;;;;;4918905;29;20220;-74
2022/03/07 03:59:52;;;;;;;7.60;3.30;;;-0.20;99.90;;;;;;4919152;29;20210;-74
2022/03/07 04:02:19;;;;;;;5.53;3.27;;;-0.40;99.90;;;;;;4922628;29;20210;-76
2022/03/07 04:04:46;;;;;;;7.93;3.53;;;-0.50;99.90;;;;;;4928468;29;20243;-75
2022/03/07 04:07:14;;;;;;;6.13;2.90;;;-0.40;99.90;;;;;;4937827;29;20239;-75
2022/03/07 04:09:42;;;;;;;4.77;3.17;;;-0.50;99.90;;;;;;4937959;29;20228;-76
2022/03/07 04:12:09;;;;;;;4.40;2.83;;;-0.70;99.90;;;;;;4938062;29;20209;-75
2022/03/07 04:14:36;;;;;;;7.60;3.77;;;-0.70;99.90;;;;;;4937041;29;21254;-75
2022/03/07 04:17:03;;;;;;;5.57;3.47;;;-0.60;99.90;;;;;;4937481;29;20216;-75
2022/03/07 04:19:30;;;;;;;5.63;3.20;;;-0.70;99.90;;;;;;4937478;29;20232;-75
2022/03/07 04:21:57;;;;;;;4.47;2.97;;;-0.60;99.90;;;;;;4936813;29;20205;-75
2022/03/07 04:24:27;;;;;;;9.00;3.50;;;-0.50;99.90;;;;;;4937465;29;20233;-75
2022/03/07 04:26:54;;;;;;;5.90;2.97;;;-0.50;99.90;;;;;;4937683;29;20246;-76
2022/03/07 04:29:21;;;;;;;5.10;2.87;;;-0.60;99.90;;;;;;4937875;29;20327;-75
2022/03/07 04:31:47;;;;;;;6.93;3.63;;;-0.60;99.90;;;;;;4937417;29;20223;-76
2022/03/07 04:34:14;;;;;;;4.70;3.07;;;-0.50;99.90;;;;;;4937517;29;20239;-75
2022/03/07 04:36:42;;;;;;;9.20;3.37;;;-0.60;99.90;;;;;;4937676;29;20213;-76
2022/03/07 04:39:11;;;;;;;4.97;2.70;;;-0.60;99.90;;;;;;4925982;29;20565;-74
2022/03/07 04:41:39;;;;;;;5.53;3.23;;;-0.60;99.90;;;;;;4918376;29;20210;-75
2022/03/07 04:44:07;;;;;;;5.37;3.40;;;-0.70;99.90;;;;;;4918347;29;20233;-75
2022/03/07 04:46:34;;;;;;;5.20;2.37;;;-0.80;99.90;;;;;;4918657;29;20225;-75
2022/03/07 04:49:01;;;;;;;8.17;3.10;;;-0.80;99.90;;;;;;4918126;29;20216;-74
2022/03/07 04:51:28;;;;;;;5.80;3.53;;;-0.80;99.90;;;;;;4918313;29;20209;-75
2022/03/07 04:53:55;;;;;;;6.63;3.27;;;-0.70;99.90;;;;;;4918205;29;20239;-75
2022/03/07 04:56:22;;;;;;;7.80;3.63;;;-0.70;99.90;;;;;;4918326;29;20220;-76
2022/03/07 04:58:50;;;;;;;7.47;3.73;;;-0.60;99.90;;;;;;4917699;29;20206;-75
2022/03/07 05:01:17;;;;;;;10.53;3.00;;;-0.70;99.90;;;;;;4918084;29;20214;-75
2022/03/07 05:03:43;;;;;;;6.77;3.70;;;-0.80;99.90;;;;;;4920959;29;20229;-75
2022/03/07 05:06:10;;;;;;;5.00;3.33;;;-0.70;99.90;;;;;;4917827;29;20206;-76
2022/03/07 05:08:38;;;;;;;7.53;3.90;;;-0.80;99.90;;;;;;4918113;29;20236;-76
2022/03/07 05:11:05;;;;;;;8.03;3.87;;;-0.70;99.90;;;;;;4917983;29;20205;-76
2022/03/07 05:13:32;;;;;;;7.53;3.93;;;-0.60;99.90;;;;;;4917950;29;20561;-75
2022/03/07 05:16:00;;;;;;;5.47;3.50;;;-0.60;99.90;;;;;;4917587;29;20216;-76
2022/03/07 05:18:27;;;;;;;6.47;3.53;;;-0.60;99.90;;;;;;4917618;29;20225;-74
2022/03/07 05:20:54;;;;;;;6.27;3.57;;;-0.40;99.90;;;;;;4918080;29;20302;-72
2022/03/07 05:23:20;;;;;;;13.77;3.90;;;-0.40;99.90;;;;;;4917724;29;20213;-74
2022/03/07 05:25:47;;;;;;;5.47;3.33;;;-0.30;99.90;;;;;;4917405;29;20230;-74
2022/03/07 05:28:14;;;;;;;8.00;4.00;;;-0.30;99.90;;;;;;4917674;29;20247;-74
2022/03/07 05:30:41;;;;;;;7.83;3.90;;;-0.30;99.90;;;;;;4917077;29;20210;-75
2022/03/07 05:33:09;;;;;;;9.90;3.63;;;-0.30;99.90;;;;;;4917139;29;20210;-75
2022/03/07 05:35:36;;;;;;;8.13;3.93;;;-0.30;99.90;;;;;;4917193;29;20245;-71
2022/03/07 05:38:04;;;;;;;8.67;3.63;;;-0.20;99.90;;;;;;4917727;29;20210;-74
2022/03/07 05:40:31;;;;;;;6.93;3.77;;;-0.10;99.90;;;;;;4917360;29;20202;-72
2022/03/07 05:42:57;;;;;;;9.83;3.57;;;-0.20;99.90;;;;;;4916990;29;20673;-75
2022/03/07 05:45:24;;;;;;;6.17;3.70;;;-0.40;99.90;;;;;;4918957;29;21933;-75
2022/03/07 05:47:51;;;;;;;8.30;3.93;;;-0.40;99.90;;;;;;4925261;29;20259;-72
2022/03/07 05:50:19;;;;;;;8.67;3.77;;;-0.50;99.90;;;;;;4916801;29;20213;-71
2022/03/07 05:52:46;;;;;;;7.73;3.93;;;-0.60;99.90;;;;;;4917800;29;20216;-72
2022/03/07 05:55:13;;;;;;;8.80;3.83;;;-0.50;99.90;;;;;;4916788;29;20230;-74
2022/03/07 05:57:40;;;;;;;6.83;3.63;;;-0.40;99.90;;;;;;4916883;29;20213;-72
2022/03/07 06:00:10;;;;;;;6.27;3.87;;;-0.50;99.90;;;;;;4932423;29;20204;-74
2022/03/07 06:02:37;;;;;;;5.67;3.47;;;-0.50;99.90;;;;;;4935453;29;20668;-73
2022/03/07 06:05:04;;;;;;;7.00;3.83;;;-0.60;99.90;;;;;;4935677;29;20225;-75
2022/03/07 06:07:32;;;;;;;7.17;3.90;;;-0.50;99.90;;;;;;4934136;29;20235;-72
2022/03/07 06:09:59;;;;;;;7.17;3.80;;;-0.60;99.90;;;;;;4935730;29;20208;-75
2022/03/07 06:12:26;;;;;;;8.13;4.03;;;-0.60;99.90;;;;;;4934951;29;20208;-71
2022/03/07 06:14:53;;;;;;;10.17;4.17;;;-0.60;99.90;;;;;;4924287;29;20244;-75
2022/03/07 06:17:21;;;;;;;6.30;3.53;;;-0.70;99.90;;;;;;4929387;29;20216;-75
2022/03/07 06:19:48;;;;;;;8.80;4.03;;;-0.40;99.90;;;;;;4935744;29;20241;-75
2022/03/07 06:22:15;;;;;;;11.93;3.80;;;-0.20;99.90;;;;;;4935101;29;20668;-75
2022/03/07 06:24:43;;;;;;;9.57;3.90;;;-0.10;99.90;;;;;;4935923;29;20229;-72
2022/03/07 06:27:10;;;;;;;7.33;3.87;;;-0.20;99.90;;;;;;4934936;29;20236;-75
2022/03/07 06:29:36;;;;;;;7.97;4.23;;;-0.10;99.90;;;;;;4935137;29;20214;-72
2022/03/07 06:32:03;;;;;;;7.10;4.00;;;0.00;99.90;;;;;;4935279;29;20208;-72
2022/03/07 06:34:31;;;;;;;10.17;4.17;;;-0.10;99.90;;;;;;4934847;29;20232;-71
2022/03/07 06:36:58;;;;;;;9.20;3.83;;;0.00;99.90;;;;;;4929726;29;20268;-73
2022/03/07 06:39:26;;;;;;;8.27;4.80;;;-0.20;99.90;;;;;;4922785;29;20201;-72
2022/03/07 06:41:55;;;;;;;6.80;4.23;;;-0.40;99.90;;;;;;4935132;29;20213;-71
2022/03/07 06:44:22;;;;;;;8.67;3.93;;;-0.40;99.90;;;;;;4935209;29;20320;-72
2022/03/07 06:46:49;;;;;;;7.60;3.97;;;-0.40;99.90;;;;;;4935476;29;20212;-75
2022/03/07 06:49:16;;;;;;;7.77;4.37;;;-0.30;99.90;;;;;;4935323;29;20209;-75
2022/03/07 06:51:43;;;;;;;7.83;4.43;;;-0.10;99.90;;;;;;4935169;29;20209;-71
2022/03/07 06:54:10;;;;;;;10.97;4.77;;;0.30;99.90;;;;;;4935356;29;20225;-69
2022/03/07 06:56:37;;;;;;;11.10;5.17;;;0.70;99.90;;;;;;4935160;29;20208;-70
2022/03/07 06:59:05;;;;;;;12.97;4.93;;;1.00;99.90;;;;;;4935097;29;20212;-70
2022/03/07 07:01:32;;;;;;;13.43;5.07;;;1.30;99.90;;;;;;4934306;29;20231;-71
2022/03/07 07:03:59;;;;;;;8.90;4.40;;;1.60;99.90;;;;;;4933863;29;20244;-70
2022/03/07 07:06:26;;;;;;;8.63;4.73;;;1.90;99.90;;;;;;4934434;29;20204;-70
2022/03/07 07:08:53;;;;;;;7.17;4.67;;;2.20;99.90;;;;;;4935067;29;20240;-70
2022/03/07 07:11:20;;;;;;;8.70;4.33;;;2.50;99.90;;;;;;4934962;29;20223;-70
2022/03/07 07:13:46;;;;;;;8.90;4.57;;;2.60;99.90;;;;;;4924874;29;20587;-71
2022/03/07 07:16:15;;;;;;;9.63;5.07;;;2.40;99.90;;;;;;4934789;29;20216;-70
2022/03/07 07:18:41;;;;;;;7.63;4.83;;;2.80;99.90;;;;;;4930174;29;20200;-73
2022/03/07 07:21:08;;;;;;;6.63;3.67;;;3.00;99.90;;;;;;4934684;29;20216;-74
2022/03/07 07:23:36;;;;;;;9.63;4.77;;;3.00;99.90;;;;;;4930466;29;20253;-73
2022/03/07 07:26:04;;;;;;;8.77;4.17;;;3.30;99.90;;;;;;4937236;29;20255;-70
2022/03/07 07:28:31;;;;;;;7.40;3.70;;;3.40;99.90;;;;;;4934954;29;20577;-72
2022/03/07 07:30:57;;;;;;;7.33;3.60;;;3.70;99.90;;;;;;4935374;29;20549;-71
2022/03/07 07:33:26;;;;;;;6.40;3.50;;;3.60;99.90;;;;;;4934306;29;20205;-70
2022/03/07 07:35:52;;;;;;;9.43;4.00;;;3.60;99.90;;;;;;4934839;29;20207;-71
2022/03/07 07:38:21;;;;;;;7.50;3.50;;;3.80;99.90;;;;;;4934865;29;20201;-74
2022/03/07 07:40:48;;;;;;;7.60;3.40;;;4.10;99.90;;;;;;4935055;29;20209;-71
2022/03/07 07:43:15;;;;;;;4.73;3.07;;;4.10;99.90;;;;;;4934907;29;20209;-71
2022/03/07 07:45:42;;;;;;;6.30;3.90;;;4.20;99.90;;;;;;4935083;29;20233;-71
2022/03/07 07:48:09;;;;;;;5.63;3.27;;;4.40;99.90;;;;;;4934486;29;20237;-71
2022/03/07 07:50:37;;;;;;;8.83;3.33;;;4.10;99.90;;;;;;4936124;29;20218;-71
2022/03/07 07:53:04;;;;;;;6.67;3.40;;;4.20;99.90;;;;;;4937990;29;20209;-71
2022/03/07 07:55:31;;;;;;;5.07;3.07;;;3.70;99.90;;;;;;4937948;29;20225;-71
2022/03/07 07:57:58;;;;;;;5.17;3.40;;;3.80;99.90;;;;;;4937980;29;20209;-70
2022/03/07 08:00:24;;;;;;;6.80;2.80;;;3.80;99.90;;;;;;4937943;29;20216;-71
2022/03/07 08:02:51;;;;;;;5.53;3.07;;;4.10;99.90;;;;;;4937946;29;20571;-71
2022/03/07 08:05:19;;;;;;;5.40;3.00;;;4.30;99.70;;;;;;4937781;29;20236;-71
2022/03/07 08:07:48;;;;;;;5.07;2.90;;;4.80;99.10;;;;;;4937563;29;20235;-71
2022/03/07 08:10:17;;;;;;;5.53;2.37;;;4.80;98.00;;;;;;4938068;29;20219;-71
2022/03/07 08:12:44;;;;;;;4.83;2.90;;;4.70;98.00;;;;;;4937710;29;20208;-71
2022/03/07 08:15:12;;;;;;;4.87;2.50;;;4.60;98.00;;;;;;4937514;29;20226;-71
2022/03/07 08:17:40;;;;;;;4.23;2.57;;;4.40;98.10;;;;;;4937018;29;20236;-71
2022/03/07 08:20:08;;;;;;;3.50;2.17;;;4.20;98.20;;;;;;4937217;29;20212;-71
2022/03/07 08:22:35;;;;;;;5.03;2.43;;;4.40;97.80;;;;;;4937631;29;20655;-71
2022/03/07 08:25:04;;;;;;;3.93;1.97;;;4.70;97.20;;;;;;4937281;29;20229;-71
2022/03/07 08:27:32;;;;;;;4.40;2.17;;;4.20;96.90;;;;;;4936990;29;20209;-71
2022/03/07 08:29:59;;;;;;;6.20;2.60;;;4.00;97.50;;;;;;4937009;29;20690;-71
2022/03/07 08:32:26;;;;;;;5.03;2.60;;;3.80;97.70;;;;;;4937423;29;20205;-72
2022/03/07 08:34:53;;;;;;;2.90;1.60;;;4.00;97.70;;;;;;4936655;29;20225;-71
2022/03/07 08:37:20;;;;;;;4.00;2.57;;;3.90;97.10;;;;;;4937611;29;20216;-70
2022/03/07 08:39:46;;;;;;;5.27;2.40;;;4.00;96.70;;;;;;4937340;29;20224;-70
2022/03/07 08:42:14;;;;;;;4.00;1.90;;;3.60;97.00;;;;;;4937482;29;20205;-70
2022/03/07 08:44:41;;;;;;;5.80;2.77;;;3.90;97.20;;;;;;4937225;29;20708;-71
2022/03/07 08:47:09;;;;;;;3.73;1.60;;;4.10;97.20;;;;;;4937490;29;20695;-71
2022/03/07 08:49:36;;;;;;;4.37;2.43;;;4.00;96.70;;;;;;4937321;29;20268;-72
2022/03/07 08:52:03;;;;;;;8.00;2.77;;;3.80;96.70;;;;;;4937196;29;20209;-70
2022/03/07 08:54:30;;;;;;;4.57;1.87;;;3.90;97.00;;;;;;4937300;29;20236;-70
2022/03/07 08:56:57;;;;;;;6.77;3.07;;;3.90;96.10;;;;;;4937137;29;20563;-70
2022/03/07 08:59:27;;;;;;;6.33;2.90;;;3.90;96.70;;;;;;4936674;29;20309;-70
2022/03/07 09:01:54;;;;;;;17.17;6.70;;;4.00;96.20;;;;;;4936255;29;20676;-72
2022/03/07 09:04:21;;;;;;;4.80;2.60;;;4.00;96.40;;;;;;4936859;29;20232;-70
2022/03/07 09:06:48;;;;;;;7.90;4.63;;;4.30;96.00;;;;;;4936317;29;20244;-70
2022/03/07 09:09:14;;;;;;;7.60;3.77;;;4.40;95.30;;;;;;4936418;29;20237;-71
2022/03/07 09:11:41;;;;;;;3.97;2.47;;;4.00;95.70;;;;;;4937114;29;20212;-71
2022/03/07 09:14:08;;;;;;;6.00;2.10;;;4.10;95.70;;;;;;4936471;29;20225;-70
2022/03/07 09:16:36;;;;;;;1.60;1.20;;;4.20;95.30;;;;;;4936833;29;20220;-70
2022/03/07 09:19:03;;;;;;;3.23;1.63;;;4.20;95.40;;;;;;4936739;29;20213;-71
2022/03/07 09:21:30;;;;;;;4.83;1.90;;;3.70;95.40;;;;;;4936710;29;20209;-73
2022/03/07 09:23:57;;;;;;;3.23;2.10;;;3.70;95.80;;;;;;4936149;29;20224;-70
2022/03/07 09:26:24;;;;;;;3.03;1.53;;;3.50;95.80;;;;;;4936422;29;20243;-70
2022/03/07 09:28:51;;;;;;;1.20;0.83;;;3.30;96.00;;;;;;4935354;29;20604;-70
2022/03/07 09:31:18;;;;;;;7.30;2.33;;;3.20;95.70;;;;;;4931080;29;20213;-70
2022/03/07 09:33:47;;;;;;;6.97;3.10;;;3.10;96.30;;;;;;4935941;29;20228;-71
2022/03/07 09:36:14;;;;;;;2.07;1.53;;;3.10;96.60;;;;;;4936069;29;20208;-70
2022/03/07 09:38:43;;;;;;;4.43;1.80;;;3.20;96.70;;;;;;4935709;29;20205;-70
2022/03/07 09:41:10;;;;;;;1.90;1.67;;;3.30;96.40;;;;;;4935610;29;20699;-70
2022/03/07 09:43:37;;;;;;;3.37;1.90;;;3.30;96.10;;;;;;4935541;29;20215;-70
2022/03/07 09:46:04;;;;;;;5.10;2.73;;;3.30;96.70;;;;;;4935587;29;20197;-71
2022/03/07 09:48:32;;;;;;;3.20;2.33;;;3.30;96.30;;;;;;4935582;29;20232;-70
2022/03/07 09:51:00;;;;;;;3.03;1.43;;;3.20;96.50;;;;;;4935515;29;20205;-70
2022/03/07 09:53:26;;;;;;;1.87;1.40;;;3.20;95.80;;;;;;4935427;29;21353;-69
2022/03/07 09:55:53;;;;;;;4.10;1.57;;;2.90;96.00;;;;;;4935579;29;20690;-71
2022/03/07 09:58:20;;;;;;;3.57;1.77;;;2.90;96.10;;;;;;4935590;29;20231;-71
2022/03/07 10:00:47;;;;;;;5.47;2.00;;;2.90;96.20;;;;;;4935630;29;20205;-71
2022/03/07 10:03:18;;;;;;;2.73;1.77;;;3.00;96.20;;;;;;4935719;29;20208;-71
2022/03/07 10:05:47;;;;;;;3.33;2.13;;;3.20;96.40;;;;;;4935494;29;20232;-71
2022/03/07 10:08:25;;;;;;;3.20;1.50;;;3.00;96.10;;;;;;4935555;29;20232;-72
2022/03/07 10:10:52;;;;;;;6.90;1.63;;;3.10;96.30;;;;;;4935815;29;20212;-70
2022/03/07 10:13:20;;;;;;;3.40;1.80;;;3.00;96.60;;;;;;4934717;29;20691;-71
2022/03/07 10:15:57;;;;;;;19.17;6.73;;;3.10;96.60;;;;;;4935350;29;20229;-70
2022/03/07 10:18:24;;;;;;;3.80;2.30;;;3.20;97.10;;;;;;4935362;29;20220;-71
2022/03/07 10:20:52;;;;;;;10.57;2.17;;;3.20;96.70;;;;;;4935530;29;20232;-70
2022/03/07 10:23:19;;;;;;;2.37;2.03;;;3.20;96.90;;;;;;4935456;29;20269;-70
2022/03/07 10:25:47;;;;;;;5.33;2.80;;;3.20;96.80;;;;;;4934858;29;20235;-71
2022/03/07 10:28:14;;;;;;;2.27;1.30;;;3.40;97.30;;;;;;4927160;29;20229;-71
2022/03/07 10:30:41;;;;;;;4.00;2.07;;;3.50;96.40;;;;;;4930625;29;20204;-71
2022/03/07 10:33:10;;;;;;;5.57;1.40;;;3.40;96.60;;;;;;4935298;29;20215;-70
2022/03/07 10:35:41;;;;;;;1.77;1.27;;;3.30;96.40;;;;;;4924028;29;20232;-70
2022/03/07 10:38:10;;;;;;;5.80;2.00;;;3.30;96.30;;;;;;4914942;29;20213;-70
2022/03/07 10:40:39;;;;;;;2.30;1.90;;;3.30;96.30;;;;;;4916467;29;20212;-70
2022/03/07 10:43:08;;;;;;;3.33;1.77;;;3.50;96.30;;;;;;4928271;29;20196;-71
2022/03/07 10:45:46;;;;;;;3.03;1.20;;;3.50;96.00;;;;;;4930421;29;20700;-72
2022/03/07 10:48:14;;;;;;;5.63;2.93;;;3.70;96.10;;;;;;4932251;29;20624;-71
2022/03/07 10:50:46;;;;;;;8.77;1.80;;;3.70;96.00;;;;;;4934918;29;20633;-71
2022/03/07 10:53:13;;;;;;;4.83;1.37;;;3.70;95.70;;;;;;4934086;29;20204;-71
2022/03/07 10:55:40;;;;;;;3.47;1.20;;;3.70;95.80;;;;;;4934108;29;20238;-70
2022/03/07 10:58:10;;;;;;;2.27;1.50;;;3.80;95.90;;;;;;4934249;29;20299;-71
2022/03/07 11:00:49;;;;;;;3.30;1.40;;;3.80;95.60;;;;;;4934153;29;20208;-71
2022/03/07 11:03:17;;;;;;;2.30;1.43;;;3.80;96.20;;;;;;4915439;29;20783;-71
2022/03/07 11:05:45;;;;;;;3.07;1.50;;;3.70;96.20;;;;;;4927962;29;20272;-70
2022/03/07 11:08:14;;;;;;;2.30;1.67;;;3.90;96.30;;;;;;4935072;29;20220;-71
2022/03/07 11:10:45;;;;;;;1.93;1.20;;;4.00;96.10;;;;;;4935271;29;20217;-71
2022/03/07 11:13:14;;;;;;;3.23;1.87;;;4.00;96.30;;;;;;4934624;29;20221;-71
2022/03/07 11:15:43;;;;;;;2.83;1.87;;;4.10;96.00;;;;;;4934957;29;20229;-70
2022/03/07 11:18:11;;;;;;;1.67;1.17;;;4.10;96.10;;;;;;4934143;29;20650;-70
2022/03/07 11:20:41;;;;;;;3.63;1.57;;;4.20;95.80;;;;;;4934269;29;20695;-70
2022/03/07 11:23:08;;;;;;;5.43;2.10;;;4.20;96.00;;;;;;4934287;29;20209;-69
2022/03/07 11:25:35;;;;;;;1.27;1.13;;;4.10;95.90;;;;;;4937977;29;20228;-69
2022/03/07 11:28:02;;;;;;;1.50;1.07;;;4.10;96.10;;;;;;4937907;29;20216;-70
2022/03/07 11:30:35;;;;;;;2.40;1.37;;;4.20;95.80;;;;;;4934549;29;20237;-71
2022/03/07 11:33:10;;;;;;;1.23;0.93;;;4.00;95.60;;;;;;4926823;29;20196;-71
2022/03/07 11:35:38;;;;;;;3.63;1.57;;;4.00;95.60;;;;;;4937501;29;20216;-71
2022/03/07 11:38:13;;;;;;;1.67;1.30;;;4.10;95.90;;;;;;4938139;29;20223;-71
2022/03/07 11:40:56;;;;;;;4.73;1.20;;;4.20;95.80;;;;;;4938221;29;20212;-71
2022/03/07 11:43:25;;;;;;;3.53;1.83;;;4.20;95.90;;;;;;4937891;29;20732;-70
2022/03/07 11:45:54;;;;;;;2.50;1.73;;;4.20;95.90;;;;;;4932506;29;20210;-70
2022/03/07 11:48:21;;;;;;;2.47;1.57;;;4.20;95.50;;;;;;4934699;29;20215;-70
2022/03/07 11:50:48;;;;;;;2.80;1.80;;;4.20;95.50;;;;;;4932560;29;20216;-71
2022/03/07 11:53:15;;;;;;;2.53;1.50;;;4.40;95.60;;;;;;4924580;29;20213;-71
2022/03/07 11:55:47;;;;;;;3.40;1.60;;;4.40;95.30;;;;;;4929666;29;20221;-71
2022/03/07 11:58:15;;;;;;;2.00;1.53;;;4.60;95.50;;;;;;4926858;29;20668;-71
2022/03/07 12:00:44;;;;;;;3.63;1.70;;;4.70;95.00;;;;;;4931009;29;20214;-71
2022/03/07 12:03:14;;;;;;;2.83;1.60;;;4.80;95.10;;;;;;4930372;29;20220;-71
2022/03/07 12:05:43;;;;;;;8.73;2.00;;;4.90;95.40;;;;;;4929513;29;20240;-72
2022/03/07 12:08:12;;;;;;;2.53;1.43;;;5.00;95.10;;;;;;4929563;29;20205;-73
2022/03/07 12:10:52;;;;;;;9.47;2.10;;;4.80;94.80;;;;;;4935055;29;20237;-74
2022/03/07 12:13:19;;;;;;;1.87;1.40;;;4.70;95.00;;;;;;4931523;29;20689;-72
2022/03/07 12:15:48;;;;;;;3.83;1.57;;;4.60;94.80;;;;;;4937379;29;20244;-73
2022/03/07 12:18:17;;;;;;;2.27;1.40;;;4.60;94.70;;;;;;4936744;29;20217;-74
2022/03/07 12:20:52;;;;;;;2.83;1.10;;;4.70;95.00;;;;;;4937648;29;20217;-72
2022/03/07 12:23:21;;;;;;;4.23;1.80;;;4.70;94.50;;;;;;4937159;29;20220;-75
2022/03/07 12:25:56;;;;;;;2.17;1.43;;;4.80;95.90;;;;;;4937287;29;20225;-72
2022/03/07 12:28:31;;;;;;;6.33;2.83;;;4.90;94.70;;;;;;4931746;29;20236;-73
2022/03/07 12:30:59;;;;;;;1.90;1.30;;;5.10;99.80;;;;;;4921179;29;20658;-73
2022/03/07 12:33:27;;;;;;;4.63;1.50;;;5.40;95.30;;;;;;4917756;29;20220;-72
2022/03/07 12:36:01;;;;;;;5.87;1.70;;;5.30;94.50;;;;;;4921439;29;20212;-73
2022/03/07 12:38:30;;;;;;;3.23;1.87;;;5.20;94.00;;;;;;4929760;29;20569;-80
2022/03/07 12:40:58;;;;;;;1.80;1.33;;;5.00;94.30;;;;;;4922995;29;20569;-75
2022/03/07 12:43:26;;;;;;;2.30;1.63;;;5.20;94.80;;;;;;4935954;29;20216;-74
2022/03/07 12:45:56;;;;;;;3.70;1.37;;;5.40;95.20;;;;;;4931939;29;20205;-75
2022/03/07 12:48:35;;;;;;;3.43;1.67;;;5.40;94.50;;;;;;4935674;29;20216;-74
2022/03/07 12:51:07;;;;;;;5.77;1.70;;;5.30;94.30;;;;;;4933973;29;20212;-80
2022/03/07 12:53:35;;;;;;;1.93;1.33;;;5.10;94.30;;;;;;4916615;29;20206;-77
2022/03/07 12:56:04;;;;;;;3.40;1.90;;;5.10;94.20;;;;;;4925940;29;20205;-84
2022/03/07 12:58:30;;;;;;;3.03;1.67;;;5.10;94.40;;;;;;4935798;29;20217;-80